ADDS METAR Data INFO
IDs: Format: Raw Decoded Include TAF

Data at: 2057 UTC 19 Jul 2018

KD95 192035Z AUTO 14008KT 10SM SCT060 28/12 A3002 RMK AO2 T02780123
KD95 192015Z AUTO 18010G15KT 10SM SCT050 28/13 A3003 RMK AO2 T02780125
KD95 191955Z AUTO 17005KT 10SM SCT050 SCT060 28/12 A3003 RMK AO2 T02800122
KD95 191935Z AUTO 17005KT 10SM BKN050 27/13 A3003 RMK AO2 T02700132
KD95 191915Z AUTO 14011G15KT 10SM SCT060 27/13 A3003 RMK AO2 T02720131
KD95 191855Z AUTO 17009KT 10SM BKN060 28/12 A3003 RMK AO2 T02820117
KD95 191835Z AUTO 13004KT 10SM SCT060 28/11 A3004 RMK AO2 T02760113
KD95 191815Z AUTO 20008KT 10SM BKN060 28/11 A3004 RMK AO2 T02810112
KD95 191755Z AUTO 16006KT 10SM BKN060 26/12 A3005 RMK AO2 T02620117 10278 20167
KD95 191735Z AUTO 19007KT 10SM SCT060 27/11 A3006 RMK AO2 T02700109
KD95 191715Z AUTO 00000KT 10SM BKN050 27/12 A3005 RMK AO2 T02720115
KD95 191655Z AUTO 21007KT 10SM BKN050 28/10 A3006 RMK AO2 T02750102
KD95 191635Z AUTO 23005KT 10SM BKN050 26/11 A3007 RMK AO2 T02600107
KD95 191615Z AUTO 14004KT 10SM SCT050 27/11 A3007 RMK AO2 T02710106
KD95 191555Z AUTO 17007KT 10SM SCT050 27/12 A3008 RMK AO2 T02680115
KD95 191535Z AUTO 15003KT 10SM CLR 26/11 A3008 RMK AO2 T02560110
KD95 191515Z AUTO 19007KT 170V230 10SM SCT046 25/11 A3008 RMK AO2 T02510114
KD95 191455Z AUTO 19006KT 10SM CLR 25/13 A3008 RMK AO2 T02540125
KD95 191435Z AUTO 20009KT 10SM CLR 25/12 A3009 RMK AO2 T02500124
KD95 191415Z AUTO 19007KT 10SM CLR 25/13 A3009 RMK AO2 T02460133
KD95 191355Z AUTO 19006KT 10SM CLR 24/14 A3009 RMK AO2 T02390137
KD95 191335Z AUTO 21005KT 10SM CLR 23/14 A3010 RMK AO2 T02300141
KD95 191315Z AUTO 18004KT 10SM CLR 21/14 A3010 RMK AO2 T02140141
KD95 191255Z AUTO 16003KT 10SM CLR 21/14 A3010 RMK AO2 T02050140
KD95 191235Z AUTO 00000KT 10SM CLR 19/14 A3010 RMK AO2 T01910137
KD95 191215Z AUTO 00000KT 10SM CLR 18/13 A3010 RMK AO2 T01800133
KD95 191155Z AUTO 00000KT 10SM CLR 16/12 A3010 RMK AO2 T01630120 10163 20094
KD95 191135Z AUTO 00000KT 10SM CLR 14/11 A3009 RMK AO2 T01400110
KD95 191115Z AUTO 00000KT 10SM CLR 12/10 A3010 RMK AO2 T01210103
KD95 191055Z AUTO 00000KT 10SM CLR 10/10 A3009 RMK AO2 T01040096
KD95 191035Z AUTO 00000KT 10SM CLR 10/09 A3009 RMK AO2 T00970090
KD95 191015Z AUTO 00000KT 10SM CLR 10/09 A3009 RMK AO2 T00990093
KD95 190955Z AUTO 00000KT 10SM CLR 09/09 A3009 RMK AO2 T00940087
KD95 190935Z AUTO 00000KT 10SM CLR 10/09 A3009 RMK AO2 T00960089
KD95 190915Z AUTO 00000KT 10SM CLR 10/09 A3009 RMK AO2 T00980091
KD95 190855Z AUTO 00000KT 10SM CLR 10/09 A3008 RMK AO2 T01000091
KD95 190835Z AUTO 00000KT 10SM CLR 10/10 A3009 RMK AO2 T01030095
KD95 190815Z AUTO 00000KT 10SM CLR 10/10 A3009 RMK AO2 T01030095
KD95 190755Z AUTO 00000KT 10SM CLR 11/10 A3008 RMK AO2 T01050097
KD95 190735Z AUTO 00000KT 10SM CLR 11/09 A3008 RMK AO2 T01060092
KD95 190715Z AUTO 00000KT 10SM CLR 11/09 A3008 RMK AO2 T01060094
KD95 190655Z AUTO 00000KT 10SM CLR 11/10 A3008 RMK AO2 T01070097
KD95 190635Z AUTO 00000KT 10SM CLR 10/09 A3008 RMK AO2 T01040091
KD95 190615Z AUTO 00000KT 10SM CLR 11/11 A3009 RMK AO2 T01140106
KD95 190555Z AUTO 00000KT 10SM CLR 11/10 A3008 RMK AO2 T01100099 10221 20108 402630093
KD95 190535Z AUTO 00000KT 10SM CLR 12/11 A3008 RMK AO2 T01160106
KD95 190515Z AUTO 00000KT 10SM CLR 12/10 A3009 RMK AO2 T01150102
KD95 190455Z AUTO 00000KT 10SM CLR 12/10 A3008 RMK AO2 T01220101
KD95 190435Z AUTO 00000KT 10SM CLR 12/10 A3008 RMK AO2 T01170098
KD95 190415Z AUTO 00000KT 10SM CLR 13/10 A3009 RMK AO2 T01320101
KD95 190355Z AUTO 00000KT 10SM CLR 13/10 A3008 RMK AO2 T01280100
KD95 190335Z AUTO 00000KT 10SM CLR 13/11 A3008 RMK AO2 T01330105
KD95 190315Z AUTO 00000KT 10SM CLR 13/10 A3009 RMK AO2 T01340104
KD95 190255Z AUTO 00000KT 10SM CLR 15/10 A3009 RMK AO2 T01450103
KD95 190235Z AUTO 00000KT 10SM CLR 15/10 A3009 RMK AO2 T01490103
KD95 190215Z AUTO 00000KT 10SM CLR 16/10 A3008 RMK AO2 T01570098
KD95 190155Z AUTO 00000KT 10SM CLR 17/10 A3008 RMK AO2 T01740100
KD95 190135Z AUTO 00000KT 10SM CLR 18/10 A3008 RMK AO2 T01800102
KD95 190115Z AUTO 00000KT 10SM CLR 19/10 A3007 RMK AO2 T01860104
KD95 190055Z AUTO 09003KT 10SM CLR 20/11 A3008 RMK AO2 T01950107
KD95 190035Z AUTO 08003KT 10SM SCT065 21/11 A3007 RMK AO2 T02050111
KD95 190015Z AUTO 08004KT 10SM BKN065 21/11 A3007 RMK AO2 T02140111
KD95 182355Z AUTO 09006KT 10SM BKN065 22/12 A3007 RMK AO2 T02220116 10263 20222
KD95 182335Z AUTO 09004KT 10SM OVC065 24/10 A3006 RMK AO2 T02390104
KD95 182315Z AUTO 34005KT 10SM BKN065 24/09 A3006 RMK AO2 T02430093
KD95 182255Z AUTO 34005KT 10SM SCT065 25/09 A3006 RMK AO2 T02450091
KD95 182235Z AUTO 32004KT 10SM SCT060 25/09 A3005 RMK AO2 T02520086
KD95 182215Z AUTO 29004KT 10SM BKN060 26/09 A3005 RMK AO2 T02620087
KD95 182155Z AUTO 00000KT 10SM SCT060 25/09 A3006 RMK AO2 T02480087
KD95 182135Z AUTO 34003KT 10SM BKN060 25/09 A3006 RMK AO2 T02460090
KD95 182115Z AUTO 00000KT 10SM BKN060 25/09 A3006 RMK AO2 T02460090
KD95 182055Z AUTO 00000KT 10SM BKN060 26/09 A3007 RMK AO2 T02570089
KD95 182035Z AUTO 00000KT 10SM SCT050 25/09 A3007 RMK AO2 T02450091
KD95 182015Z AUTO 31003KT 10SM OVC050 25/10 A3008 RMK AO2 T02470095
KD95 181955Z AUTO 00000KT 10SM BKN050 24/09 A3008 RMK AO2 T02420092
KD95 181935Z AUTO 00000KT 10SM BKN050 25/09 A3009 RMK AO2 T02460094
KD95 181915Z AUTO 02005KT 10SM OVC050 24/10 A3010 RMK AO2 T02400095
KD95 181855Z AUTO 00000KT 10SM BKN050 24/10 A3010 RMK AO2 T02420096
KD95 181835Z AUTO 00000KT 10SM BKN050 24/09 A3010 RMK AO2 T02430094
KD95 181815Z AUTO 08004KT 10SM BKN050 23/10 A3010 RMK AO2 T02330098
KD95 181755Z AUTO 01005KT 10SM SCT055 23/10 A3011 RMK AO2 T02320097 10248 20158
KD95 181735Z AUTO 00000KT 10SM SCT050 25/09 A3011 RMK AO2 T02460088
KD95 181715Z AUTO 05003KT 10SM OVC050 23/10 A3011 RMK AO2 T02300101
KD95 181655Z AUTO 01004KT 10SM BKN048 24/10 A3012 RMK AO2 T02380096
KD95 181635Z AUTO 01004KT 10SM BKN046 BKN050 23/11 A3012 RMK AO2 T02310105
KD95 181615Z AUTO 36005KT 10SM BKN042 OVC048 23/10 A3013 RMK AO2 T02280102
KD95 181555Z AUTO 35004KT 10SM BKN043 BKN049 23/10 A3013 RMK AO2 T02290095
KD95 181535Z AUTO 10003KT 10SM SCT041 23/11 A3013 RMK AO2 T02280111
KD95 181515Z AUTO 36003KT 10SM SCT034 SCT043 21/11 A3013 RMK AO2 T02100105
KD95 181455Z AUTO 35004KT 10SM BKN032 OVC043 22/12 A3013 RMK AO2 T02200115
KD95 181435Z AUTO 03003KT 10SM SCT030 BKN043 21/12 A3013 RMK AO2 T02050116
KD95 181415Z AUTO 31003KT 10SM CLR 21/12 A3014 RMK AO2 T02110118
KD95 181355Z AUTO 00000KT 10SM CLR 21/13 A3014 RMK AO2 T02050134
KD95 181335Z AUTO 33003KT 10SM SCT047 20/14 A3014 RMK AO2 T01960136
KD95 181315Z AUTO 34003KT 10SM BKN049 19/14 A3015 RMK AO2 T01890137
KD95 181255Z AUTO 34003KT 10SM BKN049 18/14 A3015 RMK AO2 T01810136
KD95 181235Z AUTO 00000KT 10SM BKN047 17/13 A3015 RMK AO2 T01720133
KD95 181215Z AUTO 00000KT 10SM SCT047 17/13 A3014 RMK AO2 T01650130
KD95 181155Z AUTO 00000KT 10SM CLR 15/13 A3014 RMK AO2 T01530126 10153 20093
KD95 181135Z AUTO 00000KT 10SM CLR 13/12 A3014 RMK AO2 T01330120
KD95 181115Z AUTO 00000KT 10SM CLR 12/11 A3013 RMK AO2 T01180112
KD95 181055Z AUTO 00000KT 10SM CLR 10/09 A3013 RMK AO2 T01000094
KD95 181035Z AUTO 00000KT 7SM CLR 10/09 A3012 RMK AO2 T00950090
KD95 181015Z AUTO 00000KT 10SM CLR 09/09 A3011 RMK AO2 T00940089
KD95 180955Z AUTO 00000KT 10SM CLR 10/09 A3011 RMK AO2 T00980093
KD95 180935Z AUTO 00000KT 10SM CLR 10/10 A3011 RMK AO2 T01020097
KD95 180915Z AUTO 00000KT 10SM CLR 10/10 A3010 RMK AO2 T01010096